Time;durP1;ratioP1;P1;durP2;ratioP2;P2;SDS_P1;SDS_P2;PMS_P1;PMS_P2;Temp;Humidity;BMP_temperature;BMP_pressure;BME280_temperature;BME280_humidity;BME280_pressure;Samples;Min_cycle;Max_cycle;Signal;HPM_P1;HPM_P2
2021/05/14 00:02:09;;;;;;;8.10;5.40;;;16.20;64.50;;;;;;5117551;28;20032;-39
2021/05/14 00:04:35;;;;;;;6.70;4.75;;;16.20;64.40;;;;;;5117879;28;20040;-39
2021/05/14 00:07:00;;;;;;;6.63;4.78;;;16.20;64.30;;;;;;5117621;28;20039;-39
2021/05/14 00:09:26;;;;;;;8.48;4.80;;;16.20;64.20;;;;;;5117907;28;20024;-39
2021/05/14 00:11:52;;;;;;;7.43;4.47;;;16.20;64.40;;;;;;5117584;28;20060;-39
2021/05/14 00:14:17;;;;;;;5.47;4.22;;;16.30;64.20;;;;;;5117577;28;20087;-39
2021/05/14 00:16:43;;;;;;;5.90;4.35;;;16.30;63.90;;;;;;5117598;28;20035;-39
2021/05/14 00:19:09;;;;;;;4.53;3.58;;;16.30;63.70;;;;;;5117634;28;20023;-39
2021/05/14 00:21:35;;;;;;;8.30;3.95;;;16.30;63.60;;;;;;5117590;28;20034;-39
2021/05/14 00:24:01;;;;;;;7.55;4.13;;;16.30;63.50;;;;;;5117409;28;20042;-39
2021/05/14 00:26:27;;;;;;;4.55;3.97;;;16.30;63.40;;;;;;5117411;28;20119;-39
2021/05/14 00:28:53;;;;;;;4.93;4.20;;;16.30;63.30;;;;;;5117368;28;20255;-39
2021/05/14 00:31:18;;;;;;;5.43;3.95;;;16.30;63.10;;;;;;5117369;28;20031;-39
2021/05/14 00:33:44;;;;;;;7.40;4.30;;;16.30;63.30;;;;;;5117304;28;20384;-39
2021/05/14 00:36:10;;;;;;;8.70;5.47;;;16.40;63.70;;;;;;5116851;28;20027;-39
2021/05/14 00:38:36;;;;;;;7.47;5.35;;;16.40;64.50;;;;;;5116914;28;20138;-39
2021/05/14 00:41:03;;;;;;;7.35;5.38;;;16.40;65.20;;;;;;5117091;28;20036;-39
2021/05/14 00:43:29;;;;;;;8.30;5.35;;;16.40;65.80;;;;;;5117146;28;20454;-39
2021/05/14 00:45:56;;;;;;;13.68;5.18;;;16.40;66.30;;;;;;5116712;28;20117;-39
2021/05/14 00:48:21;;;;;;;6.38;5.10;;;16.40;66.70;;;;;;5116922;28;20134;-39
2021/05/14 00:50:47;;;;;;;6.18;5.18;;;16.40;67.00;;;;;;5116787;28;20108;-39
2021/05/14 00:53:13;;;;;;;10.02;5.20;;;16.30;67.00;;;;;;5116991;28;20024;-39
2021/05/14 00:55:39;;;;;;;6.85;4.85;;;16.40;67.20;;;;;;5116820;28;20034;-39
2021/05/14 00:58:04;;;;;;;6.43;5.13;;;16.40;67.20;;;;;;5116725;28;20035;-39
2021/05/14 01:00:30;;;;;;;9.57;5.13;;;16.40;67.30;;;;;;5116593;28;20032;-39
2021/05/14 01:02:56;;;;;;;7.72;5.47;;;16.30;67.20;;;;;;5116862;28;20024;-39
2021/05/14 01:05:22;;;;;;;5.53;4.55;;;16.40;67.20;;;;;;5116422;28;20043;-39
2021/05/14 01:07:50;;;;;;;7.78;5.30;;;16.40;67.10;;;;;;5116539;28;20046;-39
2021/05/14 01:10:17;;;;;;;6.70;4.80;;;16.40;67.10;;;;;;5116572;28;20184;-39
2021/05/14 01:12:43;;;;;;;6.25;4.72;;;16.40;67.40;;;;;;5116582;28;20016;-39
2021/05/14 01:15:09;;;;;;;10.07;5.60;;;16.40;67.50;;;;;;5116415;28;20350;-39
2021/05/14 01:17:35;;;;;;;7.00;5.22;;;16.30;67.20;;;;;;5116265;28;20024;-39
2021/05/14 01:20:01;;;;;;;8.02;5.60;;;16.30;67.00;;;;;;5116364;28;20304;-39
2021/05/14 01:22:28;;;;;;;7.20;4.68;;;16.30;66.90;;;;;;5116227;28;20034;-39
2021/05/14 01:24:54;;;;;;;7.03;4.93;;;16.30;66.70;;;;;;5116224;28;20308;-39
2021/05/14 01:27:19;;;;;;;9.80;4.43;;;16.20;66.60;;;;;;5115917;28;20054;-39
2021/05/14 01:29:46;;;;;;;8.70;5.38;;;16.30;67.10;;;;;;5116437;28;20063;-39
2021/05/14 01:32:12;;;;;;;8.73;5.50;;;16.30;66.50;;;;;;5116144;28;20028;-39
2021/05/14 01:34:38;;;;;;;6.90;4.70;;;16.20;66.40;;;;;;5116284;28;20114;-39
2021/05/14 01:37:04;;;;;;;8.90;5.70;;;16.20;66.50;;;;;;5115739;28;20118;-39
2021/05/14 01:39:29;;;;;;;9.38;5.30;;;16.20;66.40;;;;;;5116079;28;20539;-39
2021/05/14 01:41:55;;;;;;;9.07;6.80;;;16.20;66.30;;;;;;5116069;28;20031;-39
2021/05/14 01:44:22;;;;;;;8.82;5.78;;;16.20;66.30;;;;;;5115944;28;20447;-39
2021/05/14 01:46:48;;;;;;;10.57;6.20;;;16.20;66.40;;;;;;5115939;28;20028;-39
2021/05/14 01:49:14;;;;;;;7.90;5.97;;;16.10;66.60;;;;;;5116101;28;20016;-41
2021/05/14 01:51:40;;;;;;;10.45;6.80;;;16.10;66.70;;;;;;5115829;28;20092;-41
2021/05/14 01:54:06;;;;;;;15.32;7.18;;;16.10;66.80;;;;;;5116037;28;20028;-44
2021/05/14 01:56:32;;;;;;;10.95;7.15;;;16.10;67.10;;;;;;5116129;28;20415;-41
2021/05/14 01:58:58;;;;;;;11.00;6.72;;;16.00;67.30;;;;;;5116155;28;20027;-43
2021/05/14 02:01:25;;;;;;;10.90;7.07;;;16.00;67.60;;;;;;5115950;28;20323;-43
2021/05/14 02:03:51;;;;;;;12.73;7.15;;;16.00;67.80;;;;;;5116333;28;20538;-41
2021/05/14 02:06:17;;;;;;;12.75;7.35;;;16.00;68.00;;;;;;5115873;28;20032;-42
2021/05/14 02:08:42;;;;;;;11.00;7.80;;;15.90;68.00;;;;;;5115935;28;20089;-41
2021/05/14 02:11:11;;;;;;;12.48;8.15;;;15.90;68.20;;;;;;5115792;28;20038;-41
2021/05/14 02:13:38;;;;;;;13.77;8.27;;;15.90;68.30;;;;;;5116137;28;20020;-43
2021/05/14 02:16:05;;;;;;;13.73;8.82;;;15.90;68.50;;;;;;5115747;28;20442;-43
2021/05/14 02:18:31;;;;;;;13.70;8.20;;;15.80;68.60;;;;;;5115993;28;20027;-42
2021/05/14 02:20:56;;;;;;;18.65;9.20;;;15.80;68.70;;;;;;5115689;28;20281;-42
2021/05/14 02:23:22;;;;;;;18.02;9.27;;;15.80;68.60;;;;;;5115834;28;20015;-41
2021/05/14 02:25:48;;;;;;;15.30;8.32;;;15.80;68.70;;;;;;5115772;28;20307;-41
2021/05/14 02:28:14;;;;;;;13.35;8.77;;;15.80;68.70;;;;;;5115720;28;20028;-41
2021/05/14 02:30:39;;;;;;;14.10;7.78;;;15.80;68.70;;;;;;5115737;28;20031;-41
2021/05/14 02:33:07;;;;;;;12.23;8.20;;;15.80;68.80;;;;;;5115561;28;20077;-42
2021/05/14 02:35:33;;;;;;;11.00;8.15;;;15.80;68.90;;;;;;5115626;28;20039;-41
2021/05/14 02:37:59;;;;;;;12.60;8.25;;;15.70;69.00;;;;;;5116769;28;20313;-41
2021/05/14 02:40:25;;;;;;;13.55;8.68;;;15.70;69.10;;;;;;5119319;28;20357;-42
2021/05/14 02:42:51;;;;;;;10.63;7.93;;;15.70;69.30;;;;;;5119373;28;20046;-42
2021/05/14 02:45:17;;;;;;;13.85;8.73;;;15.70;69.40;;;;;;5119283;28;20047;-41
2021/05/14 02:47:43;;;;;;;12.98;8.65;;;15.70;69.70;;;;;;5119586;28;20028;-41
2021/05/14 02:50:10;;;;;;;12.15;8.25;;;15.70;69.90;;;;;;5119279;28;20089;-42
2021/05/14 02:52:36;;;;;;;13.05;8.00;;;15.70;70.20;;;;;;5119291;28;20117;-41
2021/05/14 02:55:02;;;;;;;10.65;7.82;;;15.70;70.40;;;;;;5118817;28;20521;-42
2021/05/14 02:57:28;;;;;;;10.02;7.90;;;15.70;70.70;;;;;;5119254;28;20034;-41
2021/05/14 02:59:53;;;;;;;10.50;7.95;;;15.80;70.90;;;;;;5119029;28;20307;-42
2021/05/14 03:02:19;;;;;;;12.65;7.43;;;15.80;71.10;;;;;;5118920;28;20031;-41
2021/05/14 03:04:45;;;;;;;9.55;6.97;;;15.80;71.30;;;;;;5119048;28;20089;-44
2021/05/14 03:07:10;;;;;;;13.25;7.10;;;15.80;71.50;;;;;;5118657;28;20027;-41
2021/05/14 03:09:36;;;;;;;10.05;7.45;;;15.80;71.50;;;;;;5119065;28;20041;-41
2021/05/14 03:12:02;;;;;;;10.52;6.35;;;15.80;71.70;;;;;;5118843;28;20431;-42
2021/05/14 03:14:27;;;;;;;8.00;5.85;;;15.80;71.70;;;;;;5119095;28;20514;-41
2021/05/14 03:16:53;;;;;;;10.02;5.93;;;15.80;71.70;;;;;;5118521;28;20034;-42
2021/05/14 03:19:19;;;;;;;10.25;5.22;;;15.80;71.90;;;;;;5119093;28;20038;-42
2021/05/14 03:21:44;;;;;;;8.80;5.57;;;15.80;72.00;;;;;;5118467;28;20031;-41
2021/05/14 03:24:10;;;;;;;6.93;5.22;;;15.80;72.30;;;;;;5118932;28;20072;-41
2021/05/14 03:26:36;;;;;;;12.82;5.28;;;15.80;72.30;;;;;;5118199;28;20307;-40
2021/05/14 03:29:02;;;;;;;9.15;5.03;;;15.90;72.50;;;;;;5118519;28;20415;-41
2021/05/14 03:31:28;;;;;;;7.15;4.68;;;15.90;72.60;;;;;;5118588;28;20295;-41
2021/05/14 03:33:54;;;;;;;6.95;4.78;;;15.90;72.80;;;;;;5118717;28;20023;-42
2021/05/14 03:36:21;;;;;;;7.10;4.50;;;15.90;73.00;;;;;;5118347;28;20311;-41
2021/05/14 03:38:49;;;;;;;6.45;4.72;;;15.90;73.10;;;;;;5118450;28;20027;-41
2021/05/14 03:41:43;;;;;;;7.95;4.80;;;16.00;73.20;;;;;;5118377;28;20451;-41
2021/05/14 03:44:03;;;;;;;8.05;5.07;;;16.00;73.00;;;;;;5117309;28;20020;-41
2021/05/14 03:46:30;;;;;;;6.43;4.82;;;16.00;72.80;;;;;;5118187;28;20038;-42
2021/05/14 03:48:56;;;;;;;5.75;4.05;;;16.00;72.40;;;;;;5117994;28;20310;-43
2021/05/14 03:51:22;;;;;;;6.45;3.97;;;16.10;72.00;;;;;;5118144;28;20035;-41
2021/05/14 03:53:48;;;;;;;20.10;5.50;;;16.10;71.70;;;;;;5118003;28;20048;-41
2021/05/14 03:56:14;;;;;;;7.97;4.47;;;16.10;71.10;;;;;;5118051;28;20080;-45
2021/05/14 03:58:39;;;;;;;9.10;4.22;;;16.20;70.70;;;;;;5117898;28;20095;-42
2021/05/14 04:01:06;;;;;;;6.85;4.60;;;16.20;70.60;;;;;;5117758;28;20036;-44
2021/05/14 04:03:32;;;;;;;6.75;3.97;;;16.20;70.60;;;;;;5118216;28;20032;-43
2021/05/14 04:05:57;;;;;;;9.00;4.30;;;16.30;70.20;;;;;;5117770;28;20346;-41
2021/05/14 04:08:24;;;;;;;8.02;4.38;;;16.30;70.00;;;;;;5117699;28;20027;-41
2021/05/14 04:16:18;;;;;;;6.75;4.38;;;16.40;69.50;;;;;;5117622;28;20054;-42
2021/05/14 04:18:44;;;;;;;6.50;4.22;;;16.50;69.70;;;;;;5117539;28;20012;-43
2021/05/14 04:21:09;;;;;;;9.60;4.55;;;16.50;70.00;;;;;;5117531;28;20024;-41
2021/05/14 04:23:35;;;;;;;9.55;4.20;;;16.60;70.50;;;;;;5117667;28;20455;-42
2021/05/14 04:26:01;;;;;;;6.80;4.60;;;16.60;70.70;;;;;;5116821;28;20035;-45
2021/05/14 04:28:27;;;;;;;8.63;4.88;;;16.60;70.30;;;;;;5117239;28;20028;-44
2021/05/14 04:30:53;;;;;;;7.10;4.82;;;16.70;70.60;;;;;;5117209;28;20083;-41
2021/05/14 04:33:18;;;;;;;10.35;7.80;;;16.70;70.80;;;;;;5117493;28;20459;-42
2021/05/14 04:35:44;;;;;;;5.55;4.30;;;16.70;70.60;;;;;;5117013;28;20066;-43
2021/05/14 04:38:10;;;;;;;6.18;4.00;;;16.80;70.00;;;;;;5117081;28;20062;-43
2021/05/14 04:40:36;;;;;;;8.70;3.88;;;16.90;69.70;;;;;;5116814;28;20039;-43
2021/05/14 04:43:04;;;;;;;16.55;4.30;;;16.90;69.40;;;;;;5117083;28;20024;-43
2021/05/14 04:45:31;;;;;;;7.53;5.00;;;17.00;68.90;;;;;;5116824;28;20042;-42
2021/05/14 04:47:59;;;;;;;5.05;4.00;;;17.00;68.50;;;;;;5117118;28;20023;-45
2021/05/14 04:50:24;;;;;;;12.77;4.35;;;17.00;68.10;;;;;;5116638;28;20095;-43
2021/05/14 04:53:05;;;;;;;5.63;3.85;;;17.10;67.70;;;;;;5116766;28;20072;-43
2021/05/14 04:55:31;;;;;;;8.38;4.97;;;17.10;67.60;;;;;;5116858;28;20569;-44
2021/05/14 04:57:57;;;;;;;8.55;4.30;;;17.10;67.60;;;;;;5116765;28;20034;-41
2021/05/14 05:00:23;;;;;;;5.70;3.88;;;17.10;67.40;;;;;;5115248;28;20035;-41
2021/05/14 05:02:49;;;;;;;6.18;4.07;;;17.10;67.20;;;;;;5098493;28;20024;-44
2021/05/14 05:05:15;;;;;;;5.43;4.10;;;17.10;67.30;;;;;;5116369;28;20031;-44
2021/05/14 05:07:40;;;;;;;6.80;4.68;;;17.20;67.10;;;;;;5116444;28;20031;-41
2021/05/14 05:10:06;;;;;;;8.85;5.15;;;17.20;66.80;;;;;;5116574;28;20077;-43
2021/05/14 05:12:32;;;;;;;8.13;4.03;;;17.20;66.80;;;;;;5116720;28;20034;-43
2021/05/14 05:14:58;;;;;;;6.32;3.63;;;17.30;66.70;;;;;;5098218;28;20027;-42
2021/05/14 05:17:23;;;;;;;5.97;3.70;;;17.30;66.70;;;;;;5116244;28;20027;-43
2021/05/14 05:19:50;;;;;;;6.03;3.75;;;17.40;67.00;;;;;;5116329;28;20031;-42
2021/05/14 05:22:16;;;;;;;7.30;3.80;;;17.50;67.20;;;;;;5116286;28;20028;-42
2021/05/14 05:24:41;;;;;;;5.68;4.00;;;17.50;67.00;;;;;;5116264;28;20063;-40
2021/05/14 05:27:07;;;;;;;17.80;12.50;;;17.60;66.80;;;;;;5115767;28;20082;-42
2021/05/14 05:29:35;;;;;;;6.60;4.30;;;17.70;66.70;;;;;;5116173;28;20371;-44
2021/05/14 05:32:01;;;;;;;7.75;5.20;;;17.80;66.40;;;;;;5115899;28;20032;-41
2021/05/14 05:34:28;;;;;;;8.57;4.13;;;17.80;66.20;;;;;;5115956;28;20031;-40
2021/05/14 05:36:54;;;;;;;6.43;3.90;;;17.90;65.90;;;;;;5115580;28;20079;-41
2021/05/14 05:39:20;;;;;;;12.52;4.90;;;17.90;65.80;;;;;;5115906;28;20027;-40
2021/05/14 05:41:45;;;;;;;8.15;4.13;;;17.90;65.80;;;;;;5115755;28;20027;-43
2021/05/14 05:44:11;;;;;;;19.17;8.77;;;17.90;65.80;;;;;;5116062;28;20020;-42
2021/05/14 05:46:37;;;;;;;6.03;4.35;;;17.90;66.00;;;;;;5115720;28;20315;-41
2021/05/14 05:49:03;;;;;;;7.60;4.55;;;17.90;66.10;;;;;;5115609;28;20027;-41
2021/05/14 05:51:29;;;;;;;7.95;3.92;;;17.90;66.20;;;;;;5116055;28;20054;-41
2021/05/14 05:53:55;;;;;;;9.52;4.65;;;18.00;66.20;;;;;;5116094;28;20276;-41
2021/05/14 05:56:21;;;;;;;7.38;4.35;;;18.00;66.30;;;;;;5115443;28;20034;-42
2021/05/14 05:58:46;;;;;;;25.60;11.60;;;18.10;66.30;;;;;;5115851;28;20358;-41
2021/05/14 06:01:12;;;;;;;9.63;5.28;;;18.10;66.40;;;;;;5115826;28;20356;-42
2021/05/14 06:03:38;;;;;;;8.00;4.70;;;18.20;66.30;;;;;;5115853;28;20035;-42
2021/05/14 06:06:04;;;;;;;11.45;6.05;;;18.20;66.10;;;;;;5115567;28;20028;-42
2021/05/14 06:08:29;;;;;;;8.85;5.50;;;18.20;66.00;;;;;;5116058;28;20419;-42
2021/05/14 06:10:56;;;;;;;6.32;4.50;;;18.30;66.10;;;;;;5111803;28;20024;-42
2021/05/14 06:13:21;;;;;;;5.68;4.45;;;18.30;66.10;;;;;;5119332;28;20476;-42
2021/05/14 06:15:47;;;;;;;6.25;4.70;;;18.40;66.10;;;;;;5115244;28;20031;-43
2021/05/14 06:18:15;;;;;;;7.53;4.65;;;18.40;66.10;;;;;;5119502;28;20036;-44
2021/05/14 06:20:44;;;;;;;6.22;4.43;;;18.50;66.80;;;;;;5118673;28;20034;-41
2021/05/14 06:23:11;;;;;;;8.05;4.90;;;18.60;66.00;;;;;;5119518;28;20043;-42
2021/05/14 06:25:38;;;;;;;6.63;4.32;;;18.60;65.60;;;;;;5118968;28;20038;-41
2021/05/14 06:28:04;;;;;;;6.90;4.63;;;18.70;66.30;;;;;;5119395;28;20074;-42
2021/05/14 06:30:29;;;;;;;5.80;4.70;;;18.70;65.80;;;;;;5100356;28;20431;-41
2021/05/14 06:32:55;;;;;;;14.00;8.05;;;18.70;65.60;;;;;;5119293;28;20531;-41
2021/05/14 06:35:22;;;;;;;8.95;5.55;;;18.70;65.70;;;;;;5118881;28;20031;-41
2021/05/14 06:37:48;;;;;;;9.73;5.28;;;18.70;65.50;;;;;;5118897;28;20492;-41
2021/05/14 06:40:14;;;;;;;6.80;4.63;;;18.70;65.50;;;;;;5118191;28;20036;-42
2021/05/14 06:42:40;;;;;;;7.07;4.95;;;18.70;65.60;;;;;;5118920;28;20032;-41
2021/05/14 06:45:07;;;;;;;5.78;4.65;;;18.70;65.50;;;;;;5118845;28;20047;-41
2021/05/14 06:47:32;;;;;;;8.85;4.60;;;18.70;65.70;;;;;;5118480;28;20486;-43
2021/05/14 06:50:03;;;;;;;11.75;5.32;;;18.80;65.70;;;;;;5118531;28;20110;-41
2021/05/14 06:52:29;;;;;;;;;;;18.80;65.60;;;;;;5117577;28;20044;-42
2021/05/14 06:54:55;;;;;;;7.78;5.18;;;18.80;65.30;;;;;;5117965;28;19943;-43
2021/05/14 06:57:20;;;;;;;8.52;5.53;;;18.70;65.30;;;;;;5118694;28;20047;-41
2021/05/14 06:59:46;;;;;;;10.38;6.30;;;18.70;65.20;;;;;;5118726;28;20028;-41
2021/05/14 07:02:11;;;;;;;10.52;5.93;;;18.70;65.30;;;;;;5118000;28;20035;-41
2021/05/14 07:04:37;;;;;;;12.27;8.75;;;18.80;65.40;;;;;;5118693;28;20035;-41
2021/05/14 07:07:03;;;;;;;11.70;5.68;;;18.80;65.30;;;;;;5117947;28;20058;-42
2021/05/14 07:09:29;;;;;;;10.32;5.80;;;18.80;65.30;;;;;;5118380;28;20028;-40
2021/05/14 07:11:54;;;;;;;15.48;6.40;;;18.90;65.20;;;;;;5117649;28;20032;-41
2021/05/14 07:14:20;;;;;;;9.68;6.15;;;19.00;65.00;;;;;;5118213;28;20028;-41
2021/05/14 07:16:46;;;;;;;7.90;5.75;;;19.10;64.80;;;;;;5117951;28;20027;-42
2021/05/14 07:19:13;;;;;;;8.68;5.18;;;19.10;64.70;;;;;;5118163;28;20361;-41
2021/05/14 07:21:41;;;;;;;7.93;5.25;;;19.20;64.60;;;;;;5117717;28;20027;-41
2021/05/14 07:24:07;;;;;;;9.77;6.90;;;19.30;64.30;;;;;;5117222;28;20128;-41
2021/05/14 07:26:33;;;;;;;9.85;5.90;;;19.40;63.60;;;;;;5117760;28;20051;-41
2021/05/14 07:28:59;;;;;;;8.75;5.50;;;19.50;63.40;;;;;;5118402;28;20449;-43
2021/05/14 07:31:25;;;;;;;15.60;6.50;;;19.50;63.30;;;;;;5117529;28;20055;-41
2021/05/14 07:33:52;;;;;;;12.02;6.55;;;19.50;63.50;;;;;;5118210;28;20069;-42
2021/05/14 07:36:17;;;;;;;17.25;10.55;;;19.60;63.60;;;;;;5116993;28;20486;-41
2021/05/14 07:38:43;;;;;;;23.48;12.32;;;19.70;63.60;;;;;;5118106;28;20116;-42
2021/05/14 07:41:10;;;;;;;16.60;11.07;;;19.70;63.70;;;;;;5116772;28;20028;-41
2021/05/14 07:43:36;;;;;;;17.92;11.63;;;19.70;63.50;;;;;;5117826;28;20030;-41
2021/05/14 07:46:02;;;;;;;12.73;10.13;;;19.80;63.30;;;;;;5117161;28;20459;-40
2021/05/14 07:48:28;;;;;;;13.48;9.48;;;19.80;63.00;;;;;;5117643;28;20038;-41
2021/05/14 07:50:54;;;;;;;11.65;8.20;;;19.80;62.90;;;;;;5115831;28;20065;-41
2021/05/14 07:53:20;;;;;;;11.10;8.05;;;19.80;62.70;;;;;;5117745;28;20020;-41
2021/05/14 07:55:45;;;;;;;14.15;8.02;;;19.80;62.50;;;;;;5116518;28;20119;-42
2021/05/14 07:58:11;;;;;;;17.63;10.15;;;19.70;62.50;;;;;;5117692;28;20031;-41
2021/05/14 08:00:38;;;;;;;11.70;7.55;;;19.70;62.60;;;;;;5117102;28;20035;-40
2021/05/14 08:03:04;;;;;;;12.80;8.15;;;19.70;62.40;;;;;;5117386;28;20032;-41
2021/05/14 08:05:30;;;;;;;11.63;7.55;;;19.70;62.60;;;;;;5116972;28;20042;-40
2021/05/14 08:08:12;;;;;;;12.05;7.03;;;19.70;62.70;;;;;;5117506;28;20050;-41
2021/05/14 08:10:37;;;;;;;19.75;7.90;;;19.70;62.70;;;;;;5117622;28;20545;-42
2021/05/14 08:13:04;;;;;;;9.68;6.80;;;19.70;62.90;;;;;;5117620;28;20099;-40
2021/05/14 08:15:30;;;;;;;10.95;5.53;;;19.80;62.50;;;;;;5117091;28;20331;-41
2021/05/14 08:17:56;;;;;;;20.40;6.78;;;19.90;62.60;;;;;;5117408;28;20034;-41
2021/05/14 08:20:23;;;;;;;10.25;6.75;;;19.90;62.50;;;;;;5117000;28;20039;-40
2021/05/14 08:22:49;;;;;;;9.65;6.55;;;20.00;62.50;;;;;;5117567;28;20107;-41
2021/05/14 08:25:16;;;;;;;16.95;9.63;;;20.00;61.80;;;;;;5117291;28;20035;-41
2021/05/14 08:27:41;;;;;;;11.35;6.80;;;20.00;61.60;;;;;;5117352;28;20062;-40
2021/05/14 08:30:08;;;;;;;16.17;8.35;;;20.00;61.50;;;;;;5117204;28;20108;-41
2021/05/14 08:32:34;;;;;;;10.25;5.72;;;20.10;61.80;;;;;;5116418;28;20020;-41
2021/05/14 08:35:00;;;;;;;9.85;5.55;;;20.10;61.90;;;;;;5117178;28;20157;-41
2021/05/14 08:37:26;;;;;;;13.35;7.00;;;20.20;62.00;;;;;;5116756;28;20351;-40
2021/05/14 08:39:51;;;;;;;10.10;7.05;;;20.30;61.70;;;;;;5116916;28;20034;-41
2021/05/14 08:42:17;;;;;;;15.95;6.97;;;20.30;61.30;;;;;;5116848;28;20030;-40
2021/05/14 08:44:43;;;;;;;12.68;6.57;;;20.40;61.20;;;;;;5116718;28;20059;-40
2021/05/14 08:47:11;;;;;;;12.35;8.07;;;20.50;60.90;;;;;;5116775;28;20300;-41
2021/05/14 08:49:38;;;;;;;11.95;6.30;;;20.50;60.90;;;;;;5117244;28;20054;-41
2021/05/14 08:52:07;;;;;;;9.68;6.80;;;20.60;60.40;;;;;;5116571;28;20027;-40
2021/05/14 08:54:34;;;;;;;11.35;7.05;;;20.60;59.90;;;;;;5116595;28;20437;-41
2021/05/14 08:57:00;;;;;;;9.90;6.07;;;20.70;60.00;;;;;;5116392;28;20455;-40
2021/05/14 08:59:25;;;;;;;9.98;7.03;;;20.70;60.10;;;;;;5116651;28;20084;-40
2021/05/14 09:01:51;;;;;;;12.00;6.45;;;20.80;59.10;;;;;;5116300;28;20032;-41
2021/05/14 09:04:19;;;;;;;10.63;6.70;;;20.80;59.10;;;;;;5116736;28;20415;-43
2021/05/14 09:06:46;;;;;;;9.73;6.28;;;20.90;58.70;;;;;;5116153;28;20084;-41
2021/05/14 09:09:15;;;;;;;9.07;6.03;;;21.00;57.10;;;;;;5116292;28;20027;-41
2021/05/14 09:11:46;;;;;;;10.68;6.90;;;21.10;56.60;;;;;;5116172;28;20311;-42
2021/05/14 09:14:30;;;;;;;;;;;21.10;56.70;;;;;;5116680;28;20040;-43
2021/05/14 09:16:55;;;;;;;9.95;5.68;;;21.20;57.20;;;;;;5111520;28;19908;-41
2021/05/14 09:19:32;;;;;;;8.63;5.75;;;21.20;56.80;;;;;;5116073;28;20035;-40
2021/05/14 09:22:08;;;;;;;12.43;5.65;;;21.40;56.30;;;;;;5115511;28;20106;-43
2021/05/14 09:24:35;;;;;;;10.18;5.70;;;21.40;55.80;;;;;;5110650;28;20039;-41
2021/05/14 09:27:14;;;;;;;12.38;6.22;;;21.50;55.50;;;;;;5115289;28;20032;-42
2021/05/14 09:29:40;;;;;;;12.13;6.37;;;21.50;55.60;;;;;;5115522;28;20031;-42
2021/05/14 09:32:25;;;;;;;10.32;5.95;;;21.60;55.80;;;;;;5115408;28;20023;-41
2021/05/14 09:34:55;;;;;;;9.90;5.65;;;21.60;56.10;;;;;;5116028;28;20516;-40
2021/05/14 09:37:23;;;;;;;10.25;6.35;;;21.70;55.40;;;;;;5115160;28;20075;-41
2021/05/14 09:39:49;;;;;;;11.85;6.65;;;21.70;55.20;;;;;;5115860;28;20122;-40
2021/05/14 09:42:31;;;;;;;7.90;5.68;;;21.70;55.20;;;;;;5115180;28;20024;-40
2021/05/14 09:45:15;;;;;;;11.13;6.25;;;21.70;54.70;;;;;;5115503;28;20345;-40
2021/05/14 09:47:41;;;;;;;10.93;6.38;;;21.70;54.40;;;;;;5114763;28;20043;-42
2021/05/14 09:50:36;;;;;;;11.38;5.28;;;21.70;54.40;;;;;;5115218;28;20043;-40
2021/05/14 09:53:12;;;;;;;8.68;6.25;;;21.70;54.60;;;;;;5115291;28;20023;-41
2021/05/14 09:55:40;;;;;;;8.02;4.97;;;21.70;54.60;;;;;;5114384;28;20471;-40
2021/05/14 09:58:15;;;;;;;13.35;6.00;;;21.70;54.20;;;;;;5115513;28;20115;-40
2021/05/14 10:00:41;;;;;;;7.50;5.35;;;21.70;53.40;;;;;;5096329;28;20038;-40
2021/05/14 10:03:09;;;;;;;10.73;5.65;;;21.90;53.70;;;;;;5115146;28;20028;-41
2021/05/14 10:05:37;;;;;;;7.13;4.68;;;21.90;52.80;;;;;;5115178;28;20035;-41
2021/05/14 10:08:05;;;;;;;12.82;5.10;;;22.00;52.40;;;;;;5115335;28;20035;-41
2021/05/14 10:10:34;;;;;;;15.02;4.97;;;22.20;52.20;;;;;;5115443;28;20063;-41
2021/05/14 10:13:00;;;;;;;8.87;4.97;;;22.30;52.10;;;;;;5115152;28;20479;-42
2021/05/14 10:15:26;;;;;;;10.23;4.72;;;22.40;52.10;;;;;;5115463;28;20297;-41
2021/05/14 10:17:54;;;;;;;9.57;4.47;;;22.40;51.80;;;;;;5115738;28;20069;-40
2021/05/14 10:20:24;;;;;;;9.38;4.68;;;22.60;51.30;;;;;;5115029;28;20092;-41
2021/05/14 10:22:51;;;;;;;9.27;3.97;;;22.60;51.00;;;;;;5115592;28;20036;-41
2021/05/14 10:25:44;;;;;;;13.07;5.40;;;22.70;51.10;;;;;;5111312;28;20089;-40
2021/05/14 10:28:24;;;;;;;9.82;5.90;;;22.70;51.30;;;;;;5113261;28;20454;-41
2021/05/14 10:31:09;;;;;;;10.57;6.70;;;22.80;51.90;;;;;;5115023;28;20114;-41
2021/05/14 10:33:41;;;;;;;6.53;4.55;;;22.90;51.50;;;;;;5115527;28;20438;-41
2021/05/14 10:36:40;;;;;;;11.38;5.85;;;22.90;51.10;;;;;;5114978;28;20036;-41
2021/05/14 10:39:27;;;;;;;9.23;6.18;;;23.00;50.90;;;;;;5108328;28;20052;-41
2021/05/14 10:42:05;;;;;;;6.25;4.43;;;23.00;51.10;;;;;;5112511;28;20090;-40
2021/05/14 10:44:53;;;;;;;11.05;4.68;;;23.00;51.30;;;;;;5114660;28;20043;-42
2021/05/14 10:47:22;;;;;;;13.20;7.20;;;23.00;51.30;;;;;;5114121;28;20059;-41
2021/05/14 10:49:51;;;;;;;9.43;4.30;;;23.00;51.70;;;;;;5115098;28;20028;-41
2021/05/14 10:52:17;;;;;;;6.45;4.10;;;23.00;51.20;;;;;;5114318;28;20051;-41
2021/05/14 10:54:43;;;;;;;7.10;3.85;;;23.00;51.10;;;;;;5115234;28;20085;-41
2021/05/14 10:57:10;;;;;;;7.72;4.00;;;22.90;51.10;;;;;;5114649;28;20330;-40
2021/05/14 10:59:37;;;;;;;6.45;3.58;;;22.90;51.40;;;;;;5117002;28;20148;-41
2021/05/14 11:02:31;;;;;;;8.00;3.88;;;22.90;51.60;;;;;;5116419;28;20023;-40
2021/05/14 11:05:00;;;;;;;9.57;4.68;;;23.00;51.40;;;;;;5117058;28;20036;-40
2021/05/14 11:07:34;;;;;;;10.03;4.83;;;23.00;51.30;;;;;;5118142;28;20038;-39
2021/05/14 11:10:15;;;;;;;11.52;4.40;;;23.10;51.30;;;;;;5117987;28;20263;-42
2021/05/14 11:12:43;;;;;;;10.65;4.68;;;23.20;51.20;;;;;;5118216;28;20144;-41
2021/05/14 11:15:17;;;;;;;11.70;4.50;;;23.30;50.90;;;;;;5117597;28;20100;-40
2021/05/14 11:18:06;;;;;;;12.50;5.20;;;23.40;50.70;;;;;;5118346;28;20323;-41
2021/05/14 11:20:42;;;;;;;8.05;4.50;;;23.50;50.30;;;;;;5118102;28;20034;-41
2021/05/14 11:23:38;;;;;;;10.93;5.28;;;23.60;50.20;;;;;;5118420;28;20024;-44
2021/05/14 11:26:06;;;;;;;9.65;5.13;;;23.70;50.20;;;;;;5097179;28;20331;-41
2021/05/14 11:28:42;;;;;;;12.52;5.10;;;23.70;49.60;;;;;;5117675;28;20040;-40
2021/05/14 11:31:26;;;;;;;11.35;5.22;;;23.80;49.50;;;;;;5118178;28;20020;-40
2021/05/14 11:33:56;;;;;;;9.60;4.90;;;23.80;49.50;;;;;;5117929;28;20027;-40
2021/05/14 11:36:22;;;;;;;10.05;4.90;;;23.90;49.30;;;;;;5117190;28;20119;-43
2021/05/14 11:38:54;;;;;;;7.88;4.28;;;23.90;49.20;;;;;;5099659;28;20034;-40
2021/05/14 11:41:31;;;;;;;21.50;13.32;;;24.00;49.00;;;;;;5132237;27;20057;-40
2021/05/14 11:44:02;;;;;;;18.27;6.28;;;24.10;48.50;;;;;;5138144;27;20052;-40
2021/05/14 11:46:31;;;;;;;18.67;6.50;;;24.30;48.40;;;;;;5137963;27;20153;-41
2021/05/14 11:49:04;;;;;;;4.30;2.92;;;24.50;47.50;;;;;;5138392;27;20038;-40
2021/05/14 11:51:30;;;;;;;6.55;2.75;;;24.70;46.50;;;;;;5137456;27;20028;-41
2021/05/14 11:54:14;;;;;;;6.43;3.15;;;25.00;45.00;;;;;;5137937;27;20039;-41
2021/05/14 11:56:41;;;;;;;7.95;3.13;;;25.20;43.80;;;;;;5137869;27;20039;-40
2021/05/14 11:59:21;;;;;;;6.97;3.30;;;25.50;43.90;;;;;;5119230;27;20103;-41
2021/05/14 12:01:46;;;;;;;;;;;25.80;43.10;;;;;;5137776;27;20035;-41
2021/05/14 12:04:12;;;;;;;5.28;2.58;;;26.10;43.60;;;;;;5137239;27;19910;-42
2021/05/14 12:06:51;;;;;;;9.80;3.03;;;26.30;41.70;;;;;;5137233;27;20026;-41
2021/05/14 12:09:18;;;;;;;6.38;3.20;;;26.50;41.10;;;;;;5118594;27;20043;-40
2021/05/14 12:11:45;;;;;;;6.40;2.70;;;26.50;41.10;;;;;;5135812;27;20031;-41
2021/05/14 12:14:20;;;;;;;6.55;2.60;;;26.50;40.70;;;;;;5137654;27;20135;-42
2021/05/14 12:16:46;;;;;;;10.52;3.25;;;26.50;40.60;;;;;;5137191;27;20054;-41
2021/05/14 12:19:11;;;;;;;6.22;2.78;;;26.40;40.90;;;;;;5137404;27;20444;-41
2021/05/14 12:21:38;;;;;;;16.10;3.65;;;26.40;40.80;;;;;;5136936;27;20114;-41
2021/05/14 12:24:20;;;;;;;3.40;2.30;;;26.40;40.40;;;;;;5137595;27;20035;-41
2021/05/14 12:26:47;;;;;;;6.53;2.97;;;26.50;40.60;;;;;;5136795;27;20088;-41
2021/05/14 12:29:33;;;;;;;2.92;2.00;;;26.70;40.20;;;;;;5136821;27;20100;-41
2021/05/14 12:32:02;;;;;;;13.88;3.10;;;27.00;40.10;;;;;;5136593;27;20042;-43
2021/05/14 12:34:28;;;;;;;5.55;2.50;;;27.30;39.10;;;;;;5137086;27;20023;-41
2021/05/14 12:36:56;;;;;;;10.88;4.32;;;27.50;38.90;;;;;;5136989;27;20082;-43
2021/05/14 12:39:23;;;;;;;7.95;3.10;;;27.80;38.10;;;;;;5136603;27;20023;-43
2021/05/14 12:41:49;;;;;;;9.25;2.95;;;28.00;36.70;;;;;;5136673;27;20029;-43
2021/05/14 12:44:21;;;;;;;7.70;2.83;;;28.20;36.90;;;;;;5137036;27;20023;-42
2021/05/14 12:47:00;;;;;;;8.45;2.88;;;28.30;36.50;;;;;;5136154;27;20027;-42
2021/05/14 12:49:46;;;;;;;7.90;2.70;;;28.50;36.50;;;;;;5137388;27;20031;-41
2021/05/14 12:52:30;;;;;;;9.90;3.05;;;28.70;36.10;;;;;;5136834;27;20019;-42
2021/05/14 12:55:00;;;;;;;7.38;2.70;;;28.80;35.80;;;;;;5137154;27;20031;-41